Time;durP1;ratioP1;P1;durP2;ratioP2;P2;SDS_P1;SDS_P2;PMS_P1;PMS_P2;Temp;Humidity;BMP_temperature;BMP_pressure;BME280_temperature;BME280_humidity;BME280_pressure;Samples;Min_cycle;Max_cycle;Signal;HPM_P1;HPM_P2
2022/09/25 00:00:06;;;;;;;;;;;;;;;21.91;63.36;99050.84;7311263;19;129224;-40
2022/09/25 00:02:31;;;;;;;;;;;;;;;21.90;62.74;99050.03;7310172;19;129327;-37
2022/09/25 00:04:56;;;;;;;;;;;;;;;21.94;63.15;99053.16;7310396;19;130478;-40
2022/09/25 00:07:21;;;;;;;;;;;;;;;21.91;63.08;99051.66;7312275;19;129788;-39
2022/09/25 00:09:46;;;;;;;;;;;;;;;21.92;63.28;99049.88;7312089;19;130012;-37
2022/09/25 00:12:12;;;;;;;;;;;;;;;21.89;63.30;99052.81;7309320;19;128988;-40
2022/09/25 00:14:37;;;;;;;;;;;;;;;21.89;63.54;99051.00;7310700;19;129997;-38
2022/09/25 00:17:02;;;;;;;;;;;;;;;21.89;62.94;99047.56;7310513;19;129987;-39
2022/09/25 00:22:11;;;;;;;;;;;;;;;21.90;63.35;99052.66;7309923;19;129184;-39
2022/09/25 00:24:36;;;;;;;;;;;;;;;21.90;62.96;99050.03;7311356;19;129410;-38
2022/09/25 00:27:01;;;;;;;;;;;;;;;21.91;62.84;99050.84;7310045;19;130249;-39
2022/09/25 00:29:28;;;;;;;;;;;;;;;21.91;63.05;99054.28;7310541;19;129063;-38
2022/09/25 00:31:53;;;;;;;;;;;;;;;21.91;63.16;99053.47;7309929;19;129640;-38
2022/09/25 00:34:19;;;;;;;;;;;;;;;21.93;63.18;99049.72;7311263;19;131242;-39
2022/09/25 00:36:44;;;;;;;;;;;;;;;21.92;62.91;99048.09;7311466;19;129991;-38
2022/09/25 00:39:09;;;;;;;;;;;;;;;21.92;63.53;99045.47;7311468;19;128883;-38
2022/09/25 00:41:34;;;;;;;;;;;;;;;21.91;63.28;99046.44;7309638;19;129228;-40
2022/09/25 00:44:01;;;;;;;;;;;;;;;21.89;63.44;99040.53;7310406;19;129421;-39
2022/09/25 00:46:29;;;;;;;;;;;;;;;21.89;63.33;99043.16;7311205;19;129544;-38
2022/09/25 00:49:06;;;;;;;;;;;;;;;21.91;62.86;99046.44;7311405;19;131314;-38
2022/09/25 00:51:40;;;;;;;;;;;;;;;21.93;63.43;99046.31;7305437;19;129913;-40
2022/09/25 00:54:09;;;;;;;;;;;;;;;21.92;63.28;99044.63;7315812;19;130945;-36
2022/09/25 00:56:37;;;;;;;;;;;;;;;21.90;63.43;99044.78;7318454;19;129838;-38
2022/09/25 00:59:03;;;;;;;;;;;;;;;21.89;62.94;99032.69;7317034;19;128709;-39
2022/09/25 01:01:28;;;;;;;;;;;;;;;21.94;62.87;99042.69;7316872;19;128923;-38
2022/09/25 01:03:54;;;;;;;;;;;;;;;21.92;63.21;99031.56;7316816;19;129042;-37
2022/09/25 01:06:21;;;;;;;;;;;;;;;21.93;63.27;99039.25;7316985;19;129624;-39
2022/09/25 01:08:46;;;;;;;;;;;;;;;21.90;63.52;99039.56;7317741;19;129064;-38
2022/09/25 01:11:11;;;;;;;;;;;;;;;21.91;62.86;99035.94;7317468;19;129403;-40
2022/09/25 01:13:37;;;;;;;;;;;;;;;21.91;62.60;99035.94;7316643;19;130222;-38
2022/09/25 01:16:12;;;;;;;;;;;;;;;21.92;63.15;99037.63;7313571;19;146380;-39
2022/09/25 01:18:46;;;;;;;;;;;;;;;21.93;62.76;99034.00;7316070;19;129525;-41
2022/09/25 01:21:35;;;;;;;;;;;;;;;21.83;62.86;99017.59;7316612;19;130522;-41
2022/09/25 01:24:14;;;;;;;;;;;;;;;21.92;63.10;99031.56;7314930;19;129325;-39
2022/09/25 01:26:49;;;;;;;;;;;;;;;21.90;62.86;99020.41;7317814;19;129622;-39
2022/09/25 01:29:30;;;;;;;;;;;;;;;21.93;63.33;99031.41;7315746;19;128814;-38
2022/09/25 01:32:09;;;;;;;;;;;;;;;21.92;63.25;99032.38;7314489;19;129034;-39
2022/09/25 01:34:42;;;;;;;;;;;;;;;21.92;63.58;99032.38;7317245;19;130188;-38
2022/09/25 01:37:19;;;;;;;;;;;;;;;21.90;63.21;99034.31;7315656;19;129339;-37
2022/09/25 01:39:47;;;;;;;;;;;;;;;21.94;62.70;99035.66;7316271;19;128796;-40
2022/09/25 01:42:18;;;;;;;;;;;;;;;21.94;63.16;99030.44;7312994;19;128956;-39
2022/09/25 01:44:55;;;;;;;;;;;;;;;21.94;62.95;99035.66;7314271;19;130114;-39
2022/09/25 01:47:25;;;;;;;;;;;;;;;21.93;63.07;99034.00;7317555;19;129169;-38
2022/09/25 01:49:54;;;;;;;;;;;;;;;21.93;63.13;99034.00;7315310;19;129005;-41
2022/09/25 01:52:24;;;;;;;;;;;;;;;21.94;62.80;99034.84;7313822;19;129111;-38
2022/09/25 01:54:52;;;;;;;;;;;;;;;21.93;63.15;99041.84;7315334;19;130659;-39
2022/09/25 01:57:20;;;;;;;;;;;;;;;21.92;63.68;99037.63;7315753;19;129165;-37
2022/09/25 01:59:52;;;;;;;;;;;;;;;21.94;63.10;99034.84;7316160;19;129001;-38
2022/09/25 02:02:20;;;;;;;;;;;;;;;21.91;62.87;99035.94;7313535;19;129225;-37
2022/09/25 02:04:48;;;;;;;;;;;;;;;21.92;63.06;99037.63;7312513;19;129004;-39
2022/09/25 02:07:19;;;;;;;;;;;;;;;21.92;63.32;99045.47;7314379;19;130035;-38
2022/09/25 02:09:48;;;;;;;;;;;;;;;21.92;63.01;99042.84;7315049;19;129580;-40
2022/09/25 02:12:19;;;;;;;;;;;;;;;21.83;63.30;99014.97;7314074;19;129221;-41
2022/09/25 02:14:49;;;;;;;;;;;;;;;21.93;63.01;99036.63;7313235;19;129172;-39
2022/09/25 02:20:30;;;;;;;;;;;;;;;21.94;63.39;99030.44;7314434;19;129948;-37
2022/09/25 02:22:51;;;;;;;;;;;;;;;21.86;63.05;99013.88;7311884;19;128781;-40
2022/09/25 02:25:28;;;;;;;;;;;;;;;21.93;62.84;99034.00;7313730;19;131089;-38
2022/09/25 02:27:54;;;;;;;;;;;;;;;21.93;63.56;99031.41;7314255;19;129216;-40
2022/09/25 02:30:19;;;;;;;;;;;;;;;21.83;63.62;99016.78;7313698;19;128988;-38
2022/09/25 02:32:44;;;;;;;;;;;;;;;21.93;63.25;99031.41;7312247;19;129378;-38
2022/09/25 02:35:09;;;;;;;;;;;;;;;21.81;63.29;99013.50;7314553;19;129258;-37
2022/09/25 02:37:35;;;;;;;;;;;;;;;21.92;62.73;99032.38;7314086;19;130503;-37
2022/09/25 02:40:02;;;;;;;;;;;;;;;21.92;62.66;99037.63;7314181;19;128753;-38
2022/09/25 02:42:47;;;;;;;;;;;;;;;21.93;63.00;99034.00;7312043;19;129448;-37
2022/09/25 02:45:35;;;;;;;;;;;;;;;21.95;62.90;99032.06;7312990;19;130153;-38
2022/09/25 02:48:00;;;;;;;;;;;;;;;21.95;62.98;99026.84;7313737;19;129613;-39
2022/09/25 02:50:44;;;;;;;;;;;;;;;21.83;62.94;99011.56;7314536;19;129331;-38
2022/09/25 02:53:34;;;;;;;;;;;;;;;21.83;63.52;99007.13;7310153;19;129039;-39
2022/09/25 02:56:04;;;;;;;;;;;;;;;21.94;63.41;99019.13;7314251;19;129230;-37
2022/09/25 02:58:38;;;;;;;;;;;;;;;21.92;63.37;99019.28;7313368;19;129237;-37
2022/09/25 03:01:05;;;;;;;;;;;;;;;21.94;63.42;99025.19;7313619;19;128825;-37
2022/09/25 03:03:31;;;;;;;;;;;;;;;21.93;63.01;99028.78;7311344;19;129672;-40
2022/09/25 03:05:56;;;;;;;;;;;;;;;21.91;63.64;99028.09;7312936;19;129446;-38
2022/09/25 03:08:38;;;;;;;;;;;;;;;21.84;63.17;99007.97;7313055;19;130242;-39
2022/09/25 03:11:11;;;;;;;;;;;;;;;21.94;63.40;99032.22;7311758;19;129089;-40
2022/09/25 03:13:37;;;;;;;;;;;;;;;21.94;63.08;99033.06;7313294;19;129337;-39
2022/09/25 03:16:05;;;;;;;;;;;;;;;21.93;63.26;99027.97;7312620;19;129059;-38
2022/09/25 03:18:30;;;;;;;;;;;;;;;21.87;63.57;99018.94;7313883;19;129715;-39
2022/09/25 03:20:56;;;;;;;;;;;;;;;21.93;63.41;99023.53;7312316;19;129204;-38
2022/09/25 03:23:21;;;;;;;;;;;;;;;21.81;62.82;99001.25;7309089;19;129024;-41
2022/09/25 03:25:46;;;;;;;;;;;;;;;21.95;62.98;99016.34;7311315;19;129040;-39
2022/09/25 03:28:12;;;;;;;;;;;;;;;21.85;63.02;98999.94;7312973;19;129705;-38
2022/09/25 03:30:39;;;;;;;;;;;;;;;21.95;62.74;99021.59;7312314;19;130896;-39
2022/09/25 03:33:05;;;;;;;;;;;;;;;21.94;63.40;99019.97;7309053;19;129422;-39
2022/09/25 03:35:30;;;;;;;;;;;;;;;21.94;63.22;99025.19;7312839;19;129493;-37
2022/09/25 03:37:55;;;;;;;;;;;;;;;21.90;63.37;99012.56;7311208;19;129757;-39
2022/09/25 03:40:20;;;;;;;;;;;;;;;21.92;62.98;99016.69;7311182;19;131162;-37
2022/09/25 03:42:46;;;;;;;;;;;;;;;21.95;63.36;99008.50;7310232;19;128915;-40
2022/09/25 03:45:11;;;;;;;;;;;;;;;21.95;63.31;99005.06;7310233;19;130120;-39
2022/09/25 03:47:37;;;;;;;;;;;;;;;21.92;63.54;99006.22;7310476;19;133108;-38
2022/09/25 03:50:02;;;;;;;;;;;;;;;21.93;63.09;99005.22;7312287;19;129793;-41
2022/09/25 03:52:27;;;;;;;;;;;;;;;21.93;62.87;99005.22;7311627;19;129308;-38
2022/09/25 03:54:52;;;;;;;;;;;;;;;21.94;62.76;99011.28;7311832;19;129798;-39
2022/09/25 03:57:18;;;;;;;;;;;;;;;21.92;62.76;99008.81;7312309;19;129312;-40
2022/09/25 03:59:43;;;;;;;;;;;;;;;21.96;63.17;99004.09;7311678;19;128971;-39
2022/09/25 04:02:09;;;;;;;;;;;;;;;21.96;63.47;99004.09;7309563;19;129207;-38
2022/09/25 04:04:36;;;;;;;;;;;;;;;21.93;63.44;99015.69;7309808;19;130332;-39
2022/09/25 04:07:01;;;;;;;;;;;;;;;21.85;62.84;98997.34;7309831;19;130904;-40
2022/09/25 04:09:27;;;;;;;;;;;;;;;21.94;63.47;99008.66;7312263;19;129715;-39
2022/09/25 04:11:54;;;;;;;;;;;;;;;21.95;63.25;99015.53;7309186;19;129419;-39
2022/09/25 04:14:19;;;;;;;;;;;;;;;21.94;63.14;99011.28;7311113;19;129489;-38
2022/09/25 04:16:45;;;;;;;;;;;;;;;21.93;63.14;99017.50;7310543;19;129822;-40
2022/09/25 04:19:11;;;;;;;;;;;;;;;21.94;63.32;99019.13;7310861;19;128887;-39
2022/09/25 04:21:36;;;;;;;;;;;;;;;21.94;62.89;99024.38;7310579;19;129502;-40
2022/09/25 04:26:46;;;;;;;;;;;;;;;21.97;63.51;99024.06;7308827;19;130332;-38
2022/09/25 04:29:13;;;;;;;;;;;;;;;21.96;63.07;99023.22;7316040;19;129409;-39
2022/09/25 04:31:38;;;;;;;;;;;;;;;21.93;63.41;99014.88;7316131;19;129024;-38
2022/09/25 04:34:03;;;;;;;;;;;;;;;21.84;63.06;99005.34;7317138;19;129186;-40
2022/09/25 04:36:28;;;;;;;;;;;;;;;21.95;63.47;99026.84;7317037;19;129197;-37
2022/09/25 04:38:53;;;;;;;;;;;;;;;21.95;63.30;99026.84;7317599;19;131538;-38
2022/09/25 04:41:19;;;;;;;;;;;;;;;21.94;63.38;99027.81;7316967;19;129286;-39
2022/09/25 04:43:44;;;;;;;;;;;;;;;21.94;62.80;99025.19;7316517;19;130120;-37
2022/09/25 04:46:10;;;;;;;;;;;;;;;21.95;63.08;99021.59;7315232;19;129741;-39
2022/09/25 04:48:36;;;;;;;;;;;;;;;21.96;63.06;99022.44;7316583;19;131056;-40
2022/09/25 04:51:01;;;;;;;;;;;;;;;21.92;63.42;99021.91;7317402;19;129196;-37
2022/09/25 04:53:28;;;;;;;;;;;;;;;21.93;63.55;99030.59;7317012;19;130498;-39
2022/09/25 04:55:54;;;;;;;;;;;;;;;21.81;62.96;99006.50;7315695;19;129353;-37
2022/09/25 04:58:19;;;;;;;;;;;;;;;21.95;62.81;99026.84;7317789;19;129523;-38
2022/09/25 05:00:45;;;;;;;;;;;;;;;21.85;62.99;99012.19;7316413;19;129449;-40
2022/09/25 05:03:10;;;;;;;;;;;;;;;21.92;62.77;99016.69;7314568;19;129555;-39
2022/09/25 05:05:35;;;;;;;;;;;;;;;21.95;63.67;99026.00;7314910;19;131020;-38
2022/09/25 05:08:01;;;;;;;;;;;;;;;21.96;63.24;99025.03;7315696;19;129155;-38
2022/09/25 05:10:28;;;;;;;;;;;;;;;21.95;63.40;99032.06;7315374;19;129628;-39
2022/09/25 05:12:55;;;;;;;;;;;;;;;21.92;63.16;99021.91;7313245;19;130185;-40
2022/09/25 05:15:20;;;;;;;;;;;;;;;21.95;62.94;99032.06;7315311;19;129186;-42
2022/09/25 05:17:45;;;;;;;;;;;;;;;21.94;62.76;99029.59;7312118;19;130018;-37
2022/09/25 05:20:10;;;;;;;;;;;;;;;21.83;63.03;99011.56;7314357;19;129571;-37
2022/09/25 05:22:36;;;;;;;;;;;;;;;21.95;63.28;99037.31;7312700;19;129408;-37
2022/09/25 05:25:01;;;;;;;;;;;;;;;21.95;62.91;99032.06;7314520;19;129834;-40
2022/09/25 05:27:26;;;;;;;;;;;;;;;21.95;63.13;99037.31;7315608;19;128809;-39
2022/09/25 05:29:52;;;;;;;;;;;;;;;21.93;63.58;99039.25;7315840;19;130897;-38
2022/09/25 05:32:18;;;;;;;;;;;;;;;21.95;63.58;99036.47;7314170;19;130835;-39
2022/09/25 05:34:43;;;;;;;;;;;;;;;21.98;63.50;99039.59;7314796;19;129724;-39
2022/09/25 05:37:08;;;;;;;;;;;;;;;21.96;63.63;99038.13;7316684;19;130495;-38
2022/09/25 05:39:33;;;;;;;;;;;;;;;21.96;63.49;99033.69;7315104;19;129970;-38
2022/09/25 05:41:58;;;;;;;;;;;;;;;21.96;62.76;99038.94;7315261;19;130098;-38
2022/09/25 05:44:27;;;;;;;;;;;;;;;21.95;63.46;99042.53;7314584;19;131000;-38
2022/09/25 05:46:55;;;;;;;;;;;;;;;21.98;63.17;99036.19;7312987;19;129016;-38
2022/09/25 05:49:20;;;;;;;;;;;;;;;21.96;63.45;99040.75;7316211;19;129472;-38
2022/09/25 05:51:46;;;;;;;;;;;;;;;21.95;62.77;99037.31;7313311;19;129355;-39
2022/09/25 05:54:12;;;;;;;;;;;;;;;21.95;63.49;99041.69;7315683;19;130367;-40
2022/09/25 05:56:37;;;;;;;;;;;;;;;21.95;63.47;99047.78;7315814;19;130025;-37
2022/09/25 05:59:02;;;;;;;;;;;;;;;21.95;63.14;99045.16;7315857;19;129221;-39
2022/09/25 06:01:27;;;;;;;;;;;;;;;21.97;63.29;99037.13;7313542;19;129411;-40
2022/09/25 06:03:52;;;;;;;;;;;;;;;21.96;62.94;99038.13;7314078;19;129907;-38
2022/09/25 06:06:18;;;;;;;;;;;;;;;21.93;63.24;99034.00;7312172;19;128981;-40
2022/09/25 06:08:43;;;;;;;;;;;;;;;21.95;63.16;99033.84;7314084;19;129485;-37
2022/09/25 06:11:10;;;;;;;;;;;;;;;21.95;63.45;99032.06;7313907;19;129531;-39
2022/09/25 06:13:35;;;;;;;;;;;;;;;21.94;63.38;99035.66;7312529;19;129858;-37
2022/09/25 06:16:01;;;;;;;;;;;;;;;21.94;63.52;99030.44;7313968;19;129640;-40
2022/09/25 06:18:27;;;;;;;;;;;;;;;21.95;63.01;99031.22;7314493;19;130130;-38
2022/09/25 06:20:57;;;;;;;;;;;;;;;21.96;62.52;99023.22;7313358;19;129186;-39
2022/09/25 06:23:23;;;;;;;;;;;;;;;21.91;63.01;99025.47;7311428;19;130907;-37
2022/09/25 06:25:48;;;;;;;;;;;;;;;21.85;63.31;99015.66;7312306;19;129213;-41
2022/09/25 06:28:13;;;;;;;;;;;;;;;21.91;63.61;99025.47;7313058;19;128849;-38
2022/09/25 06:30:38;;;;;;;;;;;;;;;21.82;62.97;99008.13;7310754;19;129090;-38
2022/09/25 06:33:06;;;;;;;;;;;;;;;21.95;63.49;99032.06;7309706;19;129509;-37
2022/09/25 06:35:31;;;;;;;;;;;;;;;21.97;63.49;99037.13;7313356;19;130035;-38
2022/09/25 06:37:57;;;;;;;;;;;;;;;21.94;62.73;99034.84;7313442;19;129266;-40
2022/09/25 06:40:23;;;;;;;;;;;;;;;21.95;63.26;99039.91;7311985;19;129096;-39
2022/09/25 06:42:53;;;;;;;;;;;;;;;21.95;62.90;99041.69;7310948;19;129710;-40
2022/09/25 06:45:18;;;;;;;;;;;;;;;21.94;63.35;99033.06;7312428;19;130543;-39
2022/09/25 06:47:44;;;;;;;;;;;;;;;21.84;62.96;99023.66;7314029;19;128910;-38
2022/09/25 06:50:10;;;;;;;;;;;;;;;21.96;63.67;99038.13;7312380;19;130496;-38
2022/09/25 06:52:42;;;;;;;;;;;;;;;21.92;63.26;99042.84;7310224;19;129787;-38
2022/09/25 06:55:07;;;;;;;;;;;;;;;21.95;63.11;99053.00;7312640;19;129217;-38
2022/09/25 06:57:35;;;;;;;;;;;;;;;21.95;63.38;99047.78;7313425;19;129126;-39
2022/09/25 07:00:01;;;;;;;;;;;;;;;21.95;63.63;99057.41;7313449;19;130339;-39
2022/09/25 07:05:11;;;;;;;;;;;;;;;21.95;63.25;99055.63;7311374;19;129583;-38
2022/09/25 07:07:36;;;;;;;;;;;;;;;21.94;63.18;99051.38;7312354;19;129768;-39
2022/09/25 07:10:02;;;;;;;;;;;;;;;21.94;63.27;99056.59;7313111;19;129560;-41
2022/09/25 07:12:27;;;;;;;;;;;;;;;21.94;63.21;99053.16;7312106;19;130531;-40
2022/09/25 07:14:52;;;;;;;;;;;;;;;21.94;63.34;99048.75;7312521;19;130192;-37
2022/09/25 07:17:17;;;;;;;;;;;;;;;21.96;63.49;99048.59;7312545;19;129104;-38
2022/09/25 07:19:42;;;;;;;;;;;;;;;21.97;63.58;99050.22;7308057;19;129784;-38
2022/09/25 07:22:10;;;;;;;;;;;;;;;21.94;63.04;99046.13;7309019;19;129565;-39
2022/09/25 07:24:35;;;;;;;;;;;;;;;21.94;63.38;99046.13;7309841;19;130180;-38
2022/09/25 07:27:00;;;;;;;;;;;;;;;21.82;62.65;99031.66;7310589;19;129367;-40
2022/09/25 07:29:25;;;;;;;;;;;;;;;21.95;62.76;99044.31;7311389;19;129210;-40
2022/09/25 07:31:51;;;;;;;;;;;;;;;21.95;62.90;99053.00;7311002;19;129336;-37
2022/09/25 07:34:16;;;;;;;;;;;;;;;21.95;63.32;99046.94;7310927;19;129430;-39
2022/09/25 07:36:41;;;;;;;;;;;;;;;21.86;62.84;99021.72;7311632;19;129139;-39
2022/09/25 07:39:07;;;;;;;;;;;;;;;21.95;63.15;99036.47;7312343;19;130221;-39
2022/09/25 07:41:33;;;;;;;;;;;;;;;21.95;63.26;99039.91;7310186;19;129388;-38
2022/09/25 07:43:58;;;;;;;;;;;;;;;21.95;62.84;99039.09;7311607;19;129116;-38
2022/09/25 07:46:27;;;;;;;;;;;;;;;21.87;63.08;99025.97;7310080;19;129155;-37
2022/09/25 07:48:52;;;;;;;;;;;;;;;21.94;63.60;99040.91;7310490;19;129029;-39
2022/09/25 07:51:20;;;;;;;;;;;;;;;21.94;63.32;99040.91;7311070;19;129400;-38
2022/09/25 07:53:46;;;;;;;;;;;;;;;21.92;62.99;99048.09;7310754;19;129225;-38
2022/09/25 07:56:11;;;;;;;;;;;;;;;21.86;63.26;99030.41;7310539;19;131046;-38
2022/09/25 07:58:37;;;;;;;;;;;;;;;21.95;63.43;99044.31;7311478;19;129064;-41
2022/09/25 08:01:03;;;;;;;;;;;;;;;21.94;62.88;99040.91;7309874;19;129232;-38
2022/09/25 08:03:29;;;;;;;;;;;;;;;21.90;62.73;99023.03;7311892;19;129156;-38
2022/09/25 08:05:58;;;;;;;;;;;;;;;21.96;63.20;99044.16;7317856;19;128951;-38
2022/09/25 08:08:23;;;;;;;;;;;;;;;21.96;63.51;99038.13;7317349;19;129534;-41
2022/09/25 08:10:48;;;;;;;;;;;;;;;21.95;62.75;99034.69;7318696;19;130257;-37
2022/09/25 08:13:16;;;;;;;;;;;;;;;21.94;63.45;99038.28;7314926;19;129471;-37
2022/09/25 08:15:41;;;;;;;;;;;;;;;21.95;62.82;99032.06;7317143;19;129700;-38
2022/09/25 08:18:08;;;;;;;;;;;;;;;21.83;63.68;99017.59;7314924;19;129543;-40
2022/09/25 08:20:34;;;;;;;;;;;;;;;21.94;63.47;99030.44;7317519;19;130858;-41
2022/09/25 08:23:00;;;;;;;;;;;;;;;21.96;63.04;99027.66;7314253;19;129595;-38
2022/09/25 08:25:25;;;;;;;;;;;;;;;21.98;63.30;99026.50;7317075;19;129964;-39
2022/09/25 08:27:50;;;;;;;;;;;;;;;21.97;62.86;99024.06;7317429;19;129350;-37
2022/09/25 08:30:16;;;;;;;;;;;;;;;21.95;62.89;99021.59;7315526;19;129534;-39
2022/09/25 08:32:41;;;;;;;;;;;;;;;22.00;63.24;99023.75;7314879;19;129858;-38
2022/09/25 08:35:07;;;;;;;;;;;;;;;22.13;62.73;99018.09;7317248;19;129198;-38
2022/09/25 08:37:32;;;;;;;;;;;;;;;22.12;62.91;99013.81;7317652;19;130133;-37
2022/09/25 08:39:58;;;;;;;;;;;;;;;21.97;62.82;98997.88;7315720;19;129619;-38
2022/09/25 08:42:30;;;;;;;;;;;;;;;22.01;62.66;99009.69;7315535;19;129505;-38
2022/09/25 08:50:32;;;;;;;;;;;;;;;22.00;62.50;99009.84;7316884;19;129561;-40
2022/09/25 08:53:06;;;;;;;;;;;;;;;21.98;63.20;98998.72;7315350;19;129980;-37
2022/09/25 08:58:25;;;;;;;;;;;;;;;21.96;63.36;99002.28;7316608;19;129619;-40
2022/09/25 09:00:54;;;;;;;;;;;;;;;21.98;63.35;99005.56;7314873;19;130354;-40
2022/09/25 09:03:21;;;;;;;;;;;;;;;21.98;62.69;99006.56;7313308;19;129916;-37
2022/09/25 09:05:57;;;;;;;;;;;;;;;21.98;62.57;99009.19;7316354;19;130319;-39
2022/09/25 09:08:24;;;;;;;;;;;;;;;22.00;62.99;99007.22;7316103;19;129324;-41
2022/09/25 09:11:01;;;;;;;;;;;;;;;21.98;63.10;99002.97;7315441;19;130131;-39
2022/09/25 09:13:41;;;;;;;;;;;;;;;22.00;62.76;99005.41;7312121;19;129596;-39
2022/09/25 09:16:08;;;;;;;;;;;;;;;21.97;62.72;99003.13;7316050;19;129163;-38
2022/09/25 09:18:38;;;;;;;;;;;;;;;21.95;63.25;99000.66;7315747;19;129068;-38
2022/09/25 09:21:13;;;;;;;;;;;;;;;21.98;62.82;98996.94;7314678;19;129750;-39
2022/09/25 09:23:38;;;;;;;;;;;;;;;21.97;62.82;98997.88;7314035;19;130538;-38
2022/09/25 09:26:05;;;;;;;;;;;;;;;21.98;63.48;99000.34;7315352;19;129622;-39
2022/09/25 09:28:36;;;;;;;;;;;;;;;22.01;63.02;98993.16;7315152;19;129426;-38
2022/09/25 09:31:06;;;;;;;;;;;;;;;21.98;63.28;98990.84;7315380;19;129813;-40
2022/09/25 09:33:33;;;;;;;;;;;;;;;21.98;63.38;98993.47;7315728;19;130109;-39
2022/09/25 09:35:58;;;;;;;;;;;;;;;21.97;63.03;98987.41;7316357;19;130342;-38
2022/09/25 09:38:27;;;;;;;;;;;;;;;21.94;62.90;98988.56;7315003;19;129775;-38
2022/09/25 09:41:16;;;;;;;;;;;;;;;21.97;63.64;98992.66;7315123;19;129339;-39
2022/09/25 09:44:00;;;;;;;;;;;;;;;21.96;63.15;98986.59;7315972;19;129088;-41
2022/09/25 09:46:39;;;;;;;;;;;;;;;21.97;63.47;98982.19;7314435;19;128961;-39
2022/09/25 09:49:10;;;;;;;;;;;;;;;21.97;63.22;98995.25;7314028;19;131005;-41
2022/09/25 09:51:54;;;;;;;;;;;;;;;21.94;63.53;98985.94;7313497;19;130381;-39
2022/09/25 09:54:37;;;;;;;;;;;;;;;21.97;62.84;98982.19;7313288;19;129297;-42
2022/09/25 09:57:11;;;;;;;;;;;;;;;21.98;62.88;98981.22;7315244;19;129250;-39
2022/09/25 09:59:52;;;;;;;;;;;;;;;21.98;63.38;98977.78;7314910;19;129646;-39
2022/09/25 10:02:18;;;;;;;;;;;;;;;21.98;63.66;98980.38;7309883;19;129706;-41
2022/09/25 10:04:44;;;;;;;;;;;;;;;21.98;62.82;98979.41;7311659;19;130248;-38
2022/09/25 10:07:15;;;;;;;;;;;;;;;21.98;63.31;98972.53;7310812;19;129841;-37
2022/09/25 10:09:41;;;;;;;;;;;;;;;21.94;63.17;98970.25;7314017;19;130361;-39
2022/09/25 10:12:13;;;;;;;;;;;;;;;21.98;63.31;98967.31;7310613;19;130205;-38
2022/09/25 10:14:41;;;;;;;;;;;;;;;22.01;63.06;98964.38;7312592;19;129641;-39
2022/09/25 10:17:10;;;;;;;;;;;;;;;21.98;62.89;98967.31;7311661;19;129171;-38
2022/09/25 10:19:50;;;;;;;;;;;;;;;21.98;63.17;98962.91;7313269;19;130754;-39
2022/09/25 10:22:19;;;;;;;;;;;;;;;21.98;63.40;98962.06;7310806;19;129762;-37
2022/09/25 10:24:51;;;;;;;;;;;;;;;21.98;63.40;98961.06;7311879;19;129607;-40
2022/09/25 10:27:35;;;;;;;;;;;;;;;21.88;63.13;98942.06;7310276;19;129737;-38
2022/09/25 10:30:26;;;;;;;;;;;;;;;22.01;63.13;98956.50;7311476;19;130915;-39
2022/09/25 10:33:00;;;;;;;;;;;;;;;21.98;62.54;98954.22;7309755;19;131178;-36
2022/09/25 10:35:40;;;;;;;;;;;;;;;21.95;63.32;98950.09;7311054;19;130323;-38
2022/09/25 10:38:17;;;;;;;;;;;;;;;21.96;63.53;98949.94;7312831;19;129441;-39
2022/09/25 10:40:48;;;;;;;;;;;;;;;21.98;62.89;98944.56;7312664;19;129529;-38
2022/09/25 10:43:13;;;;;;;;;;;;;;;22.00;62.88;98944.41;7311297;19;131109;-40
2022/09/25 10:45:39;;;;;;;;;;;;;;;21.98;62.74;98953.22;7312075;19;128936;-37
2022/09/25 10:51:09;;;;;;;;;;;;;;;21.95;63.43;98942.25;7311348;19;129164;-39
2022/09/25 10:53:34;;;;;;;;;;;;;;;21.98;63.08;98936.72;7312018;19;129453;-38
2022/09/25 10:56:04;;;;;;;;;;;;;;;21.95;62.64;98932.59;7311557;19;130167;-39
2022/09/25 10:58:44;;;;;;;;;;;;;;;21.97;63.50;98929.84;7311468;19;129781;-40
2022/09/25 11:01:12;;;;;;;;;;;;;;;21.98;62.79;98926.25;7310518;19;129191;-37
2022/09/25 11:03:45;;;;;;;;;;;;;;;21.98;62.66;98930.66;7313442;19;129793;-39
2022/09/25 11:06:14;;;;;;;;;;;;;;;21.96;63.39;98929.00;7311470;19;129332;-38
2022/09/25 11:08:40;;;;;;;;;;;;;;;21.98;63.26;98920.19;7313264;19;129512;-40
2022/09/25 11:11:08;;;;;;;;;;;;;;;21.98;63.27;98920.19;7311944;19;129697;-40
2022/09/25 11:13:45;;;;;;;;;;;;;;;21.98;63.01;98921.81;7311607;19;130124;-38
2022/09/25 11:16:10;;;;;;;;;;;;;;;22.00;63.39;98923.47;7312205;19;129067;-40
2022/09/25 11:18:38;;;;;;;;;;;;;;;21.98;62.92;98925.44;7312843;19;130166;-40
2022/09/25 11:21:04;;;;;;;;;;;;;;;21.87;63.26;98897.72;7312950;19;129528;-38
2022/09/25 11:23:36;;;;;;;;;;;;;;;21.87;63.06;98901.19;7308746;19;129609;-37
2022/09/25 11:26:07;;;;;;;;;;;;;;;21.98;62.75;98914.94;7313113;19;129074;-39
2022/09/25 11:28:36;;;;;;;;;;;;;;;22.01;63.45;98909.41;7313326;19;129038;-39
2022/09/25 11:31:04;;;;;;;;;;;;;;;21.98;62.71;98909.72;7311571;19;131091;-40
2022/09/25 11:33:41;;;;;;;;;;;;;;;21.96;63.49;98905.44;7309211;19;129249;-39
2022/09/25 11:36:17;;;;;;;;;;;;;;;21.95;62.99;98911.66;7312419;19;129393;-38
2022/09/25 11:41:40;;;;;;;;;;;;;;;22.00;63.28;98907.78;7312946;19;129555;-39
2022/09/25 11:44:11;;;;;;;;;;;;;;;21.98;62.92;98914.94;7311021;19;130453;-41
2022/09/25 11:46:50;;;;;;;;;;;;;;;21.98;63.07;98907.09;7311898;19;129216;-37
2022/09/25 11:49:18;;;;;;;;;;;;;;;21.97;63.34;98908.88;7312210;19;129560;-40
2022/09/25 11:51:46;;;;;;;;;;;;;;;21.98;63.05;98913.16;7311699;19;129527;-39
2022/09/25 11:54:43;;;;;;;;;;;;;;;21.96;62.52;98913.28;7311190;19;130437;-39
2022/09/25 11:57:10;;;;;;;;;;;;;;;21.98;62.84;98909.72;7310386;19;129225;-38
2022/09/25 11:59:38;;;;;;;;;;;;;;;21.96;63.41;98910.69;7312345;19;129233;-40
2022/09/25 12:02:22;;;;;;;;;;;;;;;21.98;62.84;98909.72;7311208;19;128940;-41
2022/09/25 12:05:02;;;;;;;;;;;;;;;21.94;63.47;98901.38;7312491;19;129241;-38
2022/09/25 12:07:39;;;;;;;;;;;;;;;21.98;63.28;98904.50;7311147;19;129454;-40
2022/09/25 12:10:43;;;;;;;;;;;;;;;21.95;63.15;98895.13;7312002;19;128892;-39
2022/09/25 12:13:27;;;;;;;;;;;;;;;21.98;63.62;98906.13;7304722;19;130165;-37
2022/09/25 12:15:55;;;;;;;;;;;;;;;22.00;62.65;98900.72;7308248;19;130665;-38
2022/09/25 12:18:27;;;;;;;;;;;;;;;22.00;62.94;98894.69;7309578;19;129256;-39
2022/09/25 12:21:11;;;;;;;;;;;;;;;21.97;63.14;98895.81;7312291;19;128969;-39
2022/09/25 12:23:59;;;;;;;;;;;;;;;21.95;62.94;98893.34;7311275;19;129431;-38
2022/09/25 12:26:46;;;;;;;;;;;;;;;22.00;63.32;98889.44;7310722;19;129900;-40
2022/09/25 12:29:29;;;;;;;;;;;;;;;21.98;62.88;98878.31;7311957;19;129309;-38
2022/09/25 12:32:05;;;;;;;;;;;;;;;21.96;63.02;98875.84;7308862;19;129077;-38
2022/09/25 12:34:33;;;;;;;;;;;;;;;22.00;63.39;98881.59;7311070;19;129316;-39
2022/09/25 12:37:05;;;;;;;;;;;;;;;21.87;62.96;98867.16;7310727;19;129175;-39
2022/09/25 12:39:41;;;;;;;;;;;;;;;21.98;63.53;98887.78;7309927;19;129286;-39
2022/09/25 12:42:16;;;;;;;;;;;;;;;21.97;63.34;98880.09;7310512;19;129366;-37
2022/09/25 12:44:56;;;;;;;;;;;;;;;21.93;63.11;98876.97;7309988;19;129340;-37
2022/09/25 12:47:45;;;;;;;;;;;;;;;21.98;63.20;98872.09;7309666;19;129966;-38
2022/09/25 12:50:19;;;;;;;;;;;;;;;21.86;63.33;98855.06;7314952;19;129846;-38
2022/09/25 12:53:11;;;;;;;;;;;;;;;21.97;63.41;98874.88;7314454;19;129228;-39
2022/09/25 12:55:40;;;;;;;;;;;;;;;21.97;63.56;98872.25;7317162;19;130250;-38
2022/09/25 12:58:20;;;;;;;;;;;;;;;21.89;63.28;98846.88;7317412;19;130331;-39
2022/09/25 13:00:48;;;;;;;;;;;;;;;21.98;62.91;98860.00;7317300;19;128846;-39
2022/09/25 13:03:21;;;;;;;;;;;;;;;21.98;63.31;98860.00;7313876;19;129108;-38
2022/09/25 13:05:52;;;;;;;;;;;;;;;21.86;63.56;98844.59;7317084;19;129761;-38
2022/09/25 13:08:22;;;;;;;;;;;;;;;21.97;62.78;98864.41;7316196;19;129434;-37
2022/09/25 13:11:06;;;;;;;;;;;;;;;21.98;62.84;98857.38;7316274;19;129015;-40